Terminal Aerodrome Forecast
Issued by NWS Mt. Holly, NJ

Home | Current Version | Previous Version | Text Only | Print | Product List | Glossary On
Versions: 1 2 3 4 5 6 7 8 9 10 11 12 13 14 15 16 17 18 19 20 21 22 23 24 25 26 27
000
FTUS41 KPHI 232323
TAFACY
TAF
KACY 232323Z 2400/2424 05025G38KT P6SM -RA OVC015
      TEMPO 2400/2404 4SM -RA OVC008
     FM240400 36018G28KT 5SM -RA BR OVC007
     FM241600 32014G24KT P6SM OVC015
     FM242200 31010G20KT P6SM OVC035=

USA.gov is the U.S. government's official web portal to all federal, state and local government web resources and services.